Rollins, Indiana
Current Conditions -  °F | °C
As of 4:55 AM on Thursday 23 Oct 2014 (Local Time) from KDCY Reporting Station
Haze Haze  
Wind Chill: 35°   Ceiling: 500
Heat Index: 35°   Visibility: 0.75mi
Dew Point: 35°   Wind: 0mph
Humidity: 100%   Direction: NA
Pressure: 30.25"   Gusts: NA
Location:  38.6262°N, 86.7615°W
Report Text: KDCY 230955Z AUTO 00000KT 3/4SM BR VV005 02/02 A3025 RMK AO2 T00180018
Loading
Personal Weather Stations






























Interactive Weather Map
Tropical Storm Tracking
New forecast layout! Learn more

10-Day Weather Forecast

Advertisements
Track Severe Weather on mobile